sensor_id;sensor_type;location;lat;lon;timestamp;temperature;humidity
2024;DHT22;1016;48.770;9.154;2023-03-04T00:00:31;6.20;99.90
2024;DHT22;1016;48.770;9.154;2023-03-04T00:02:56;6.20;99.90
2024;DHT22;1016;48.770;9.154;2023-03-04T00:05:22;6.20;99.90
2024;DHT22;1016;48.770;9.154;2023-03-04T00:07:47;6.20;99.90
2024;DHT22;1016;48.770;9.154;2023-03-04T00:10:13;6.30;99.90
2024;DHT22;1016;48.770;9.154;2023-03-04T00:12:38;6.30;99.90
2024;DHT22;1016;48.770;9.154;2023-03-04T00:15:04;6.20;99.90
2024;DHT22;1016;48.770;9.154;2023-03-04T00:17:30;6.10;99.90
2024;DHT22;1016;48.770;9.154;2023-03-04T00:19:56;6.10;99.90
2024;DHT22;1016;48.770;9.154;2023-03-04T00:22:22;6.10;99.90
2024;DHT22;1016;48.770;9.154;2023-03-04T00:24:47;6.10;99.90
2024;DHT22;1016;48.770;9.154;2023-03-04T00:27:13;6.00;99.90
2024;DHT22;1016;48.770;9.154;2023-03-04T00:29:38;6.00;99.90
2024;DHT22;1016;48.770;9.154;2023-03-04T00:32:04;6.00;99.90
2024;DHT22;1016;48.770;9.154;2023-03-04T00:34:30;6.00;99.90
2024;DHT22;1016;48.770;9.154;2023-03-04T00:36:56;6.00;99.90
2024;DHT22;1016;48.770;9.154;2023-03-04T00:39:26;6.00;99.90
2024;DHT22;1016;48.770;9.154;2023-03-04T00:41:52;6.00;99.90
2024;DHT22;1016;48.770;9.154;2023-03-04T00:44:18;6.00;99.90
2024;DHT22;1016;48.770;9.154;2023-03-04T00:46:43;6.00;99.90
2024;DHT22;1016;48.770;9.154;2023-03-04T00:49:09;6.00;99.90
2024;DHT22;1016;48.770;9.154;2023-03-04T00:51:34;6.00;99.90
2024;DHT22;1016;48.770;9.154;2023-03-04T00:54:00;5.90;99.90
2024;DHT22;1016;48.770;9.154;2023-03-04T00:56:25;5.90;99.90
2024;DHT22;1016;48.770;9.154;2023-03-04T00:58:51;5.90;99.90
2024;DHT22;1016;48.770;9.154;2023-03-04T01:01:16;5.90;99.90
2024;DHT22;1016;48.770;9.154;2023-03-04T01:03:42;5.90;99.90
2024;DHT22;1016;48.770;9.154;2023-03-04T01:06:07;5.90;99.90
2024;DHT22;1016;48.770;9.154;2023-03-04T01:08:33;5.90;99.90
2024;DHT22;1016;48.770;9.154;2023-03-04T01:10:58;5.90;99.90
2024;DHT22;1016;48.770;9.154;2023-03-04T01:13:24;5.80;99.90
2024;DHT22;1016;48.770;9.154;2023-03-04T01:15:49;5.90;99.90
2024;DHT22;1016;48.770;9.154;2023-03-04T01:18:15;5.90;99.90
2024;DHT22;1016;48.770;9.154;2023-03-04T01:20:40;5.90;99.90
2024;DHT22;1016;48.770;9.154;2023-03-04T01:23:06;5.90;99.90
2024;DHT22;1016;48.770;9.154;2023-03-04T01:25:32;5.90;99.90
2024;DHT22;1016;48.770;9.154;2023-03-04T01:27:57;5.90;99.90
2024;DHT22;1016;48.770;9.154;2023-03-04T01:30:23;5.90;99.90
2024;DHT22;1016;48.770;9.154;2023-03-04T01:32:49;5.80;99.90
2024;DHT22;1016;48.770;9.154;2023-03-04T01:35:14;5.80;99.90
2024;DHT22;1016;48.770;9.154;2023-03-04T01:37:40;5.80;99.90
2024;DHT22;1016;48.770;9.154;2023-03-04T01:40:06;5.80;99.90
2024;DHT22;1016;48.770;9.154;2023-03-04T01:42:33;5.70;99.90
2024;DHT22;1016;48.770;9.154;2023-03-04T01:45:00;5.70;99.90
2024;DHT22;1016;48.770;9.154;2023-03-04T01:47:30;5.60;99.90
2024;DHT22;1016;48.770;9.154;2023-03-04T01:49:57;5.60;99.90
2024;DHT22;1016;48.770;9.154;2023-03-04T01:52:26;5.70;99.90
2024;DHT22;1016;48.770;9.154;2023-03-04T01:54:52;5.50;99.90
2024;DHT22;1016;48.770;9.154;2023-03-04T01:57:19;5.50;99.90
2024;DHT22;1016;48.770;9.154;2023-03-04T01:59:46;5.50;99.90
2024;DHT22;1016;48.770;9.154;2023-03-04T02:02:12;5.50;99.90
2024;DHT22;1016;48.770;9.154;2023-03-04T02:04:38;5.50;99.90
2024;DHT22;1016;48.770;9.154;2023-03-04T02:07:05;5.40;99.90
2024;DHT22;1016;48.770;9.154;2023-03-04T02:09:32;5.40;99.90
2024;DHT22;1016;48.770;9.154;2023-03-04T02:11:58;5.40;99.90
2024;DHT22;1016;48.770;9.154;2023-03-04T02:14:24;5.40;99.90
2024;DHT22;1016;48.770;9.154;2023-03-04T02:16:50;5.40;99.90
2024;DHT22;1016;48.770;9.154;2023-03-04T02:19:26;5.50;99.90
2024;DHT22;1016;48.770;9.154;2023-03-04T02:21:53;5.40;99.90
2024;DHT22;1016;48.770;9.154;2023-03-04T02:24:28;5.40;99.90
2024;DHT22;1016;48.770;9.154;2023-03-04T02:26:55;5.50;99.90
2024;DHT22;1016;48.770;9.154;2023-03-04T02:29:21;5.50;99.90
2024;DHT22;1016;48.770;9.154;2023-03-04T02:31:49;5.50;99.90
2024;DHT22;1016;48.770;9.154;2023-03-04T02:34:20;5.50;99.90
2024;DHT22;1016;48.770;9.154;2023-03-04T02:36:48;5.40;99.90
2024;DHT22;1016;48.770;9.154;2023-03-04T02:41:50;5.40;99.90
2024;DHT22;1016;48.770;9.154;2023-03-04T02:44:18;5.40;99.90
2024;DHT22;1016;48.770;9.154;2023-03-04T02:46:44;5.40;99.90
2024;DHT22;1016;48.770;9.154;2023-03-04T02:49:10;5.40;99.90
2024;DHT22;1016;48.770;9.154;2023-03-04T02:51:36;5.30;99.90
2024;DHT22;1016;48.770;9.154;2023-03-04T02:54:01;5.40;99.90
2024;DHT22;1016;48.770;9.154;2023-03-04T02:56:27;5.30;99.90
2024;DHT22;1016;48.770;9.154;2023-03-04T02:58:52;5.30;99.90
2024;DHT22;1016;48.770;9.154;2023-03-04T03:01:18;5.30;99.90
2024;DHT22;1016;48.770;9.154;2023-03-04T03:03:43;5.30;99.90
2024;DHT22;1016;48.770;9.154;2023-03-04T03:06:09;5.30;99.90
2024;DHT22;1016;48.770;9.154;2023-03-04T03:08:34;5.20;99.90
2024;DHT22;1016;48.770;9.154;2023-03-04T03:11:00;5.20;99.90
2024;DHT22;1016;48.770;9.154;2023-03-04T03:13:25;5.20;99.90
2024;DHT22;1016;48.770;9.154;2023-03-04T03:15:51;5.20;99.90
2024;DHT22;1016;48.770;9.154;2023-03-04T03:18:16;5.20;99.90
2024;DHT22;1016;48.770;9.154;2023-03-04T03:20:42;5.20;99.90
2024;DHT22;1016;48.770;9.154;2023-03-04T03:23:07;5.30;99.90
2024;DHT22;1016;48.770;9.154;2023-03-04T03:25:33;5.20;99.90
2024;DHT22;1016;48.770;9.154;2023-03-04T03:27:59;5.20;99.90
2024;DHT22;1016;48.770;9.154;2023-03-04T03:30:24;5.10;99.90
2024;DHT22;1016;48.770;9.154;2023-03-04T03:32:50;5.10;99.90
2024;DHT22;1016;48.770;9.154;2023-03-04T03:35:15;5.10;99.90
2024;DHT22;1016;48.770;9.154;2023-03-04T03:37:41;5.10;99.90
2024;DHT22;1016;48.770;9.154;2023-03-04T03:40:07;5.10;99.90
2024;DHT22;1016;48.770;9.154;2023-03-04T03:42:33;5.10;99.90
2024;DHT22;1016;48.770;9.154;2023-03-04T03:44:58;5.00;99.90
2024;DHT22;1016;48.770;9.154;2023-03-04T03:47:24;4.90;99.90
2024;DHT22;1016;48.770;9.154;2023-03-04T03:49:49;5.00;99.90
2024;DHT22;1016;48.770;9.154;2023-03-04T03:52:15;4.90;99.90
2024;DHT22;1016;48.770;9.154;2023-03-04T03:54:40;4.90;99.90
2024;DHT22;1016;48.770;9.154;2023-03-04T03:57:06;4.90;99.90
2024;DHT22;1016;48.770;9.154;2023-03-04T03:59:31;4.90;99.90
2024;DHT22;1016;48.770;9.154;2023-03-04T04:04:23;4.70;99.90
2024;DHT22;1016;48.770;9.154;2023-03-04T04:06:48;4.60;99.90
2024;DHT22;1016;48.770;9.154;2023-03-04T04:09:14;4.60;99.90
2024;DHT22;1016;48.770;9.154;2023-03-04T04:11:39;4.60;99.90
2024;DHT22;1016;48.770;9.154;2023-03-04T04:14:05;4.60;99.90
2024;DHT22;1016;48.770;9.154;2023-03-04T04:16:31;4.60;99.90
2024;DHT22;1016;48.770;9.154;2023-03-04T04:18:56;4.60;99.90
2024;DHT22;1016;48.770;9.154;2023-03-04T04:21:22;4.60;99.90
2024;DHT22;1016;48.770;9.154;2023-03-04T04:23:47;4.70;99.90
2024;DHT22;1016;48.770;9.154;2023-03-04T04:26:13;4.70;99.90
2024;DHT22;1016;48.770;9.154;2023-03-04T04:28:38;4.70;99.90
2024;DHT22;1016;48.770;9.154;2023-03-04T04:31:07;4.70;99.90
2024;DHT22;1016;48.770;9.154;2023-03-04T04:33:34;4.70;99.90
2024;DHT22;1016;48.770;9.154;2023-03-04T04:35:59;4.70;99.90
2024;DHT22;1016;48.770;9.154;2023-03-04T04:38:25;4.70;99.90
2024;DHT22;1016;48.770;9.154;2023-03-04T04:40:51;4.60;99.90
2024;DHT22;1016;48.770;9.154;2023-03-04T04:43:17;4.60;99.90
2024;DHT22;1016;48.770;9.154;2023-03-04T04:45:42;4.60;99.90
2024;DHT22;1016;48.770;9.154;2023-03-04T04:48:08;4.60;99.90
2024;DHT22;1016;48.770;9.154;2023-03-04T04:50:33;4.60;99.90
2024;DHT22;1016;48.770;9.154;2023-03-04T04:52:59;4.50;99.90
2024;DHT22;1016;48.770;9.154;2023-03-04T04:55:25;4.50;99.90
2024;DHT22;1016;48.770;9.154;2023-03-04T05:00:17;4.40;99.90
2024;DHT22;1016;48.770;9.154;2023-03-04T05:02:43;4.40;99.90
2024;DHT22;1016;48.770;9.154;2023-03-04T05:05:09;4.40;99.90
2024;DHT22;1016;48.770;9.154;2023-03-04T05:07:35;4.40;99.90
2024;DHT22;1016;48.770;9.154;2023-03-04T05:10:01;4.40;99.90
2024;DHT22;1016;48.770;9.154;2023-03-04T05:12:27;4.40;99.90
2024;DHT22;1016;48.770;9.154;2023-03-04T05:14:52;4.40;99.90
2024;DHT22;1016;48.770;9.154;2023-03-04T05:17:18;4.40;99.90
2024;DHT22;1016;48.770;9.154;2023-03-04T05:19:43;4.30;99.90
2024;DHT22;1016;48.770;9.154;2023-03-04T05:22:09;4.30;99.90
2024;DHT22;1016;48.770;9.154;2023-03-04T05:24:34;4.40;99.90
2024;DHT22;1016;48.770;9.154;2023-03-04T05:27:01;4.40;99.90
2024;DHT22;1016;48.770;9.154;2023-03-04T05:29:27;4.30;99.90
2024;DHT22;1016;48.770;9.154;2023-03-04T05:31:52;4.30;99.90
2024;DHT22;1016;48.770;9.154;2023-03-04T05:34:18;4.30;99.90
2024;DHT22;1016;48.770;9.154;2023-03-04T05:36:43;4.30;99.90
2024;DHT22;1016;48.770;9.154;2023-03-04T05:39:09;4.30;99.90
2024;DHT22;1016;48.770;9.154;2023-03-04T05:41:35;4.30;99.90
2024;DHT22;1016;48.770;9.154;2023-03-04T05:44:01;4.20;99.90
2024;DHT22;1016;48.770;9.154;2023-03-04T05:46:26;4.20;99.90
2024;DHT22;1016;48.770;9.154;2023-03-04T05:48:53;4.20;99.90
2024;DHT22;1016;48.770;9.154;2023-03-04T05:51:19;4.30;99.90
2024;DHT22;1016;48.770;9.154;2023-03-04T05:53:45;4.20;99.90
2024;DHT22;1016;48.770;9.154;2023-03-04T05:56:13;4.20;99.90
2024;DHT22;1016;48.770;9.154;2023-03-04T05:58:39;4.20;99.90
2024;DHT22;1016;48.770;9.154;2023-03-04T06:01:05;4.10;99.90
2024;DHT22;1016;48.770;9.154;2023-03-04T06:03:31;4.10;99.90
2024;DHT22;1016;48.770;9.154;2023-03-04T06:05:57;4.10;99.90
2024;DHT22;1016;48.770;9.154;2023-03-04T06:08:22;4.10;99.90
2024;DHT22;1016;48.770;9.154;2023-03-04T06:10:51;4.00;99.90
2024;DHT22;1016;48.770;9.154;2023-03-04T06:13:17;4.00;99.90
2024;DHT22;1016;48.770;9.154;2023-03-04T06:15:43;4.00;99.90
2024;DHT22;1016;48.770;9.154;2023-03-04T06:18:08;4.10;99.90
2024;DHT22;1016;48.770;9.154;2023-03-04T06:20:34;4.10;99.90
2024;DHT22;1016;48.770;9.154;2023-03-04T06:23:00;4.10;99.90
2024;DHT22;1016;48.770;9.154;2023-03-04T06:25:25;4.10;99.90
2024;DHT22;1016;48.770;9.154;2023-03-04T06:27:51;4.10;99.90
2024;DHT22;1016;48.770;9.154;2023-03-04T06:30:17;4.00;99.90
2024;DHT22;1016;48.770;9.154;2023-03-04T06:32:43;4.00;99.90
2024;DHT22;1016;48.770;9.154;2023-03-04T06:35:10;4.00;99.90
2024;DHT22;1016;48.770;9.154;2023-03-04T06:37:36;3.90;99.90
2024;DHT22;1016;48.770;9.154;2023-03-04T06:40:02;4.00;99.90
2024;DHT22;1016;48.770;9.154;2023-03-04T06:42:28;4.10;99.90
2024;DHT22;1016;48.770;9.154;2023-03-04T06:44:53;4.10;99.90
2024;DHT22;1016;48.770;9.154;2023-03-04T06:47:19;4.10;99.90
2024;DHT22;1016;48.770;9.154;2023-03-04T06:49:44;4.10;99.90
2024;DHT22;1016;48.770;9.154;2023-03-04T06:52:10;4.10;99.90
2024;DHT22;1016;48.770;9.154;2023-03-04T06:54:37;4.10;99.90
2024;DHT22;1016;48.770;9.154;2023-03-04T06:57:03;4.20;99.90
2024;DHT22;1016;48.770;9.154;2023-03-04T06:59:29;4.20;99.90
2024;DHT22;1016;48.770;9.154;2023-03-04T07:01:54;4.10;99.90
2024;DHT22;1016;48.770;9.154;2023-03-04T07:04:20;4.10;99.90
2024;DHT22;1016;48.770;9.154;2023-03-04T07:06:47;4.10;99.90
2024;DHT22;1016;48.770;9.154;2023-03-04T07:09:12;4.10;99.90
2024;DHT22;1016;48.770;9.154;2023-03-04T07:11:38;4.10;99.90
2024;DHT22;1016;48.770;9.154;2023-03-04T07:14:03;4.20;99.90
2024;DHT22;1016;48.770;9.154;2023-03-04T07:16:28;4.20;99.90
2024;DHT22;1016;48.770;9.154;2023-03-04T07:18:54;4.20;99.90
2024;DHT22;1016;48.770;9.154;2023-03-04T07:21:20;4.20;99.90
2024;DHT22;1016;48.770;9.154;2023-03-04T07:23:45;4.30;99.90
2024;DHT22;1016;48.770;9.154;2023-03-04T07:26:11;4.30;99.90
2024;DHT22;1016;48.770;9.154;2023-03-04T07:28:36;4.30;99.90
2024;DHT22;1016;48.770;9.154;2023-03-04T07:31:22;4.30;99.90
2024;DHT22;1016;48.770;9.154;2023-03-04T07:33:48;4.20;99.90
2024;DHT22;1016;48.770;9.154;2023-03-04T07:36:13;4.30;99.90
2024;DHT22;1016;48.770;9.154;2023-03-04T07:38:46;4.20;99.90
2024;DHT22;1016;48.770;9.154;2023-03-04T07:41:12;4.30;99.90
2024;DHT22;1016;48.770;9.154;2023-03-04T07:43:38;4.20;99.90
2024;DHT22;1016;48.770;9.154;2023-03-04T07:46:04;4.30;99.90
2024;DHT22;1016;48.770;9.154;2023-03-04T07:48:29;4.40;99.90
2024;DHT22;1016;48.770;9.154;2023-03-04T07:51:10;4.30;99.90
2024;DHT22;1016;48.770;9.154;2023-03-04T07:53:37;4.30;99.90
2024;DHT22;1016;48.770;9.154;2023-03-04T07:56:04;4.30;99.90
2024;DHT22;1016;48.770;9.154;2023-03-04T07:58:30;4.20;99.90
2024;DHT22;1016;48.770;9.154;2023-03-04T08:00:56;4.20;99.90
2024;DHT22;1016;48.770;9.154;2023-03-04T08:03:22;4.20;99.90
2024;DHT22;1016;48.770;9.154;2023-03-04T08:05:47;4.30;99.90
2024;DHT22;1016;48.770;9.154;2023-03-04T08:08:13;4.20;99.90
2024;DHT22;1016;48.770;9.154;2023-03-04T08:10:38;4.10;99.90
2024;DHT22;1016;48.770;9.154;2023-03-04T08:13:07;4.20;99.90
2024;DHT22;1016;48.770;9.154;2023-03-04T08:15:33;4.10;99.90
2024;DHT22;1016;48.770;9.154;2023-03-04T08:18:00;4.20;99.90
2024;DHT22;1016;48.770;9.154;2023-03-04T08:20:26;4.10;99.90
2024;DHT22;1016;48.770;9.154;2023-03-04T08:22:51;4.20;99.90
2024;DHT22;1016;48.770;9.154;2023-03-04T08:25:17;4.20;99.90
2024;DHT22;1016;48.770;9.154;2023-03-04T08:27:42;4.20;99.90
2024;DHT22;1016;48.770;9.154;2023-03-04T08:30:08;4.20;99.90
2024;DHT22;1016;48.770;9.154;2023-03-04T08:32:34;4.20;99.90
2024;DHT22;1016;48.770;9.154;2023-03-04T08:35:00;4.30;99.90
2024;DHT22;1016;48.770;9.154;2023-03-04T08:37:27;4.40;99.90
2024;DHT22;1016;48.770;9.154;2023-03-04T08:39:53;4.40;99.90
2024;DHT22;1016;48.770;9.154;2023-03-04T08:42:18;4.50;99.90
2024;DHT22;1016;48.770;9.154;2023-03-04T08:44:44;4.40;99.90
2024;DHT22;1016;48.770;9.154;2023-03-04T08:47:09;4.30;99.90
2024;DHT22;1016;48.770;9.154;2023-03-04T08:49:36;4.30;99.90
2024;DHT22;1016;48.770;9.154;2023-03-04T08:52:01;4.30;99.90
2024;DHT22;1016;48.770;9.154;2023-03-04T08:54:27;4.30;99.90
2024;DHT22;1016;48.770;9.154;2023-03-04T08:56:52;4.30;99.90
2024;DHT22;1016;48.770;9.154;2023-03-04T08:59:18;4.40;99.90
2024;DHT22;1016;48.770;9.154;2023-03-04T09:01:43;4.50;99.90
2024;DHT22;1016;48.770;9.154;2023-03-04T09:04:09;4.50;99.90
2024;DHT22;1016;48.770;9.154;2023-03-04T09:06:34;4.50;99.90
2024;DHT22;1016;48.770;9.154;2023-03-04T09:09:00;4.50;99.90
2024;DHT22;1016;48.770;9.154;2023-03-04T09:11:25;4.60;99.90
2024;DHT22;1016;48.770;9.154;2023-03-04T09:13:51;4.70;99.90
2024;DHT22;1016;48.770;9.154;2023-03-04T09:16:17;4.60;99.90
2024;DHT22;1016;48.770;9.154;2023-03-04T09:18:43;4.60;99.90
2024;DHT22;1016;48.770;9.154;2023-03-04T09:21:09;4.60;99.90
2024;DHT22;1016;48.770;9.154;2023-03-04T09:23:36;4.40;99.90
2024;DHT22;1016;48.770;9.154;2023-03-04T09:26:13;4.40;99.90
2024;DHT22;1016;48.770;9.154;2023-03-04T09:28:38;4.30;99.90
2024;DHT22;1016;48.770;9.154;2023-03-04T09:31:11;4.20;99.90
2024;DHT22;1016;48.770;9.154;2023-03-04T09:33:36;4.30;99.90
2024;DHT22;1016;48.770;9.154;2023-03-04T09:36:03;4.30;99.90
2024;DHT22;1016;48.770;9.154;2023-03-04T09:38:28;4.40;99.90
2024;DHT22;1016;48.770;9.154;2023-03-04T09:41:04;4.30;99.90
2024;DHT22;1016;48.770;9.154;2023-03-04T09:43:30;4.40;99.90
2024;DHT22;1016;48.770;9.154;2023-03-04T09:45:58;4.40;99.90
2024;DHT22;1016;48.770;9.154;2023-03-04T09:48:28;4.50;99.90
2024;DHT22;1016;48.770;9.154;2023-03-04T09:51:12;4.40;99.90
2024;DHT22;1016;48.770;9.154;2023-03-04T09:56:21;4.50;99.90
2024;DHT22;1016;48.770;9.154;2023-03-04T10:01:33;4.70;99.90
2024;DHT22;1016;48.770;9.154;2023-03-04T10:07:05;4.80;99.90
2024;DHT22;1016;48.770;9.154;2023-03-04T10:10:11;4.80;99.90
2024;DHT22;1016;48.770;9.154;2023-03-04T10:12:39;5.00;99.90
2024;DHT22;1016;48.770;9.154;2023-03-04T10:17:46;5.00;99.90
2024;DHT22;1016;48.770;9.154;2023-03-04T10:20:38;5.00;99.90
2024;DHT22;1016;48.770;9.154;2023-03-04T10:23:10;5.00;99.90
2024;DHT22;1016;48.770;9.154;2023-03-04T10:25:43;5.00;99.90
2024;DHT22;1016;48.770;9.154;2023-03-04T10:28:16;5.10;99.90
2024;DHT22;1016;48.770;9.154;2023-03-04T10:33:34;5.00;99.90
2024;DHT22;1016;48.770;9.154;2023-03-04T10:38:51;5.00;99.90
2024;DHT22;1016;48.770;9.154;2023-03-04T10:41:23;5.00;99.90
2024;DHT22;1016;48.770;9.154;2023-03-04T10:46:45;5.20;99.90
2024;DHT22;1016;48.770;9.154;2023-03-04T10:49:16;5.20;99.90
2024;DHT22;1016;48.770;9.154;2023-03-04T10:54:40;5.20;99.90
2024;DHT22;1016;48.770;9.154;2023-03-04T10:57:14;5.10;99.90
2024;DHT22;1016;48.770;9.154;2023-03-04T10:59:48;5.10;99.90
2024;DHT22;1016;48.770;9.154;2023-03-04T11:02:20;5.10;99.90
2024;DHT22;1016;48.770;9.154;2023-03-04T11:05:15;5.20;99.90
2024;DHT22;1016;48.770;9.154;2023-03-04T11:07:55;5.10;99.90
2024;DHT22;1016;48.770;9.154;2023-03-04T11:13:12;5.20;99.90
2024;DHT22;1016;48.770;9.154;2023-03-04T11:18:30;5.00;99.90
2024;DHT22;1016;48.770;9.154;2023-03-04T11:20:59;5.10;99.90
2024;DHT22;1016;48.770;9.154;2023-03-04T11:23:35;5.10;99.90
2024;DHT22;1016;48.770;9.154;2023-03-04T11:26:08;5.20;99.90
2024;DHT22;1016;48.770;9.154;2023-03-04T11:28:56;5.10;99.90
2024;DHT22;1016;48.770;9.154;2023-03-04T11:31:31;5.20;99.90
2024;DHT22;1016;48.770;9.154;2023-03-04T11:34:03;5.20;99.90
2024;DHT22;1016;48.770;9.154;2023-03-04T11:39:22;5.40;99.90
2024;DHT22;1016;48.770;9.154;2023-03-04T11:41:55;5.40;99.90
2024;DHT22;1016;48.770;9.154;2023-03-04T11:44:22;5.50;99.90
2024;DHT22;1016;48.770;9.154;2023-03-04T11:47:20;5.30;99.90
2024;DHT22;1016;48.770;9.154;2023-03-04T11:52:56;5.30;99.90
2024;DHT22;1016;48.770;9.154;2023-03-04T11:55:38;5.30;99.90
2024;DHT22;1016;48.770;9.154;2023-03-04T12:00:53;5.30;99.90
2024;DHT22;1016;48.770;9.154;2023-03-04T12:03:33;5.30;99.90
2024;DHT22;1016;48.770;9.154;2023-03-04T12:06:20;5.40;99.90
2024;DHT22;1016;48.770;9.154;2023-03-04T12:09:08;5.50;99.90
2024;DHT22;1016;48.770;9.154;2023-03-04T12:12:07;5.60;99.90
2024;DHT22;1016;48.770;9.154;2023-03-04T12:14:43;5.60;99.90
2024;DHT22;1016;48.770;9.154;2023-03-04T12:29:14;5.60;99.90
2024;DHT22;1016;48.770;9.154;2023-03-04T12:31:45;5.60;99.90
2024;DHT22;1016;48.770;9.154;2023-03-04T12:34:28;5.70;99.90
2024;DHT22;1016;48.770;9.154;2023-03-04T12:39:38;5.60;99.90
2024;DHT22;1016;48.770;9.154;2023-03-04T12:45:18;5.40;99.90
2024;DHT22;1016;48.770;9.154;2023-03-04T12:51:00;5.40;99.90
2024;DHT22;1016;48.770;9.154;2023-03-04T12:53:55;5.60;99.90
2024;DHT22;1016;48.770;9.154;2023-03-04T12:56:30;5.50;99.90
2024;DHT22;1016;48.770;9.154;2023-03-04T12:58:58;5.60;99.90
2024;DHT22;1016;48.770;9.154;2023-03-04T13:01:38;5.60;99.90
2024;DHT22;1016;48.770;9.154;2023-03-04T13:04:25;5.60;99.90
2024;DHT22;1016;48.770;9.154;2023-03-04T13:07:12;5.80;99.90
2024;DHT22;1016;48.770;9.154;2023-03-04T13:09:54;5.80;99.90
2024;DHT22;1016;48.770;9.154;2023-03-04T13:12:22;5.70;99.90
2024;DHT22;1016;48.770;9.154;2023-03-04T13:17:45;5.70;99.90
2024;DHT22;1016;48.770;9.154;2023-03-04T13:23:00;5.70;99.90
2024;DHT22;1016;48.770;9.154;2023-03-04T13:38:31;5.90;99.90
2024;DHT22;1016;48.770;9.154;2023-03-04T13:41:13;5.90;99.90
2024;DHT22;1016;48.770;9.154;2023-03-04T13:43:50;5.90;99.90
2024;DHT22;1016;48.770;9.154;2023-03-04T13:51:22;5.90;99.80
2024;DHT22;1016;48.770;9.154;2023-03-04T13:53:52;5.90;99.30
2024;DHT22;1016;48.770;9.154;2023-03-04T13:56:34;5.90;99.60
2024;DHT22;1016;48.770;9.154;2023-03-04T14:01:34;5.80;99.30
2024;DHT22;1016;48.770;9.154;2023-03-04T14:04:09;5.80;99.10
2024;DHT22;1016;48.770;9.154;2023-03-04T14:06:44;5.60;99.20
2024;DHT22;1016;48.770;9.154;2023-03-04T14:09:14;5.60;99.40
2024;DHT22;1016;48.770;9.154;2023-03-04T14:11:41;5.50;99.30
2024;DHT22;1016;48.770;9.154;2023-03-04T14:14:12;5.40;99.80
2024;DHT22;1016;48.770;9.154;2023-03-04T14:16:44;5.30;99.90
2024;DHT22;1016;48.770;9.154;2023-03-04T14:19:30;5.30;99.90
2024;DHT22;1016;48.770;9.154;2023-03-04T14:21:58;5.30;99.90
2024;DHT22;1016;48.770;9.154;2023-03-04T14:24:24;5.30;99.90
2024;DHT22;1016;48.770;9.154;2023-03-04T14:27:09;5.40;99.90
2024;DHT22;1016;48.770;9.154;2023-03-04T14:29:35;5.40;99.90
2024;DHT22;1016;48.770;9.154;2023-03-04T14:32:03;5.40;99.90
2024;DHT22;1016;48.770;9.154;2023-03-04T14:34:31;5.40;99.90
2024;DHT22;1016;48.770;9.154;2023-03-04T14:36:59;5.30;99.90
2024;DHT22;1016;48.770;9.154;2023-03-04T14:39:29;5.40;99.90
2024;DHT22;1016;48.770;9.154;2023-03-04T14:41:58;5.40;99.90
2024;DHT22;1016;48.770;9.154;2023-03-04T14:44:50;5.40;99.90
2024;DHT22;1016;48.770;9.154;2023-03-04T14:47:23;5.40;99.90
2024;DHT22;1016;48.770;9.154;2023-03-04T14:49:50;5.40;99.90
2024;DHT22;1016;48.770;9.154;2023-03-04T14:52:36;5.40;99.90
2024;DHT22;1016;48.770;9.154;2023-03-04T14:55:23;5.50;99.90
2024;DHT22;1016;48.770;9.154;2023-03-04T14:58:05;5.40;99.90
2024;DHT22;1016;48.770;9.154;2023-03-04T15:00:33;5.40;99.90
2024;DHT22;1016;48.770;9.154;2023-03-04T15:03:21;5.50;99.90
2024;DHT22;1016;48.770;9.154;2023-03-04T15:05:48;5.30;99.90
2024;DHT22;1016;48.770;9.154;2023-03-04T15:08:29;5.40;99.90
2024;DHT22;1016;48.770;9.154;2023-03-04T15:10:59;5.40;99.90
2024;DHT22;1016;48.770;9.154;2023-03-04T15:13:47;5.40;99.90
2024;DHT22;1016;48.770;9.154;2023-03-04T15:16:15;5.50;99.90
2024;DHT22;1016;48.770;9.154;2023-03-04T15:19:03;5.50;99.90
2024;DHT22;1016;48.770;9.154;2023-03-04T15:21:40;5.40;99.90
2024;DHT22;1016;48.770;9.154;2023-03-04T15:24:08;5.40;99.90
2024;DHT22;1016;48.770;9.154;2023-03-04T15:26:37;5.50;99.90
2024;DHT22;1016;48.770;9.154;2023-03-04T15:29:15;5.60;99.90
2024;DHT22;1016;48.770;9.154;2023-03-04T15:31:42;5.60;99.90
2024;DHT22;1016;48.770;9.154;2023-03-04T15:34:12;5.60;99.90
2024;DHT22;1016;48.770;9.154;2023-03-04T15:36:38;5.70;99.90
2024;DHT22;1016;48.770;9.154;2023-03-04T15:39:04;5.50;99.90
2024;DHT22;1016;48.770;9.154;2023-03-04T15:41:30;5.50;99.90
2024;DHT22;1016;48.770;9.154;2023-03-04T15:43:55;5.50;99.90
2024;DHT22;1016;48.770;9.154;2023-03-04T15:46:21;5.60;99.90
2024;DHT22;1016;48.770;9.154;2023-03-04T15:48:47;5.60;99.90
2024;DHT22;1016;48.770;9.154;2023-03-04T15:51:21;5.60;99.90
2024;DHT22;1016;48.770;9.154;2023-03-04T15:53:49;5.50;99.90
2024;DHT22;1016;48.770;9.154;2023-03-04T15:56:28;5.40;99.90
2024;DHT22;1016;48.770;9.154;2023-03-04T15:59:12;5.40;99.90
2024;DHT22;1016;48.770;9.154;2023-03-04T16:01:38;5.40;99.90
2024;DHT22;1016;48.770;9.154;2023-03-04T16:04:04;5.40;99.90
2024;DHT22;1016;48.770;9.154;2023-03-04T16:06:31;5.40;99.90
2024;DHT22;1016;48.770;9.154;2023-03-04T16:08:57;5.40;99.90
2024;DHT22;1016;48.770;9.154;2023-03-04T16:11:26;5.50;99.90
2024;DHT22;1016;48.770;9.154;2023-03-04T16:13:52;5.50;99.90
2024;DHT22;1016;48.770;9.154;2023-03-04T16:16:18;5.60;99.90
2024;DHT22;1016;48.770;9.154;2023-03-04T16:18:43;5.60;99.90
2024;DHT22;1016;48.770;9.154;2023-03-04T16:21:15;5.70;99.90
2024;DHT22;1016;48.770;9.154;2023-03-04T16:23:44;5.70;99.90
2024;DHT22;1016;48.770;9.154;2023-03-04T16:26:14;5.70;99.90
2024;DHT22;1016;48.770;9.154;2023-03-04T16:28:41;5.80;99.90
2024;DHT22;1016;48.770;9.154;2023-03-04T16:31:10;5.80;99.90
2024;DHT22;1016;48.770;9.154;2023-03-04T16:33:36;5.70;99.90
2024;DHT22;1016;48.770;9.154;2023-03-04T16:36:01;5.60;99.90
2024;DHT22;1016;48.770;9.154;2023-03-04T16:38:30;5.50;99.90
2024;DHT22;1016;48.770;9.154;2023-03-04T16:40:57;5.50;99.90
2024;DHT22;1016;48.770;9.154;2023-03-04T16:43:24;5.50;99.90
2024;DHT22;1016;48.770;9.154;2023-03-04T16:45:50;5.40;99.90
2024;DHT22;1016;48.770;9.154;2023-03-04T16:48:16;5.50;99.90
2024;DHT22;1016;48.770;9.154;2023-03-04T16:50:42;5.50;99.90
2024;DHT22;1016;48.770;9.154;2023-03-04T16:53:33;5.50;99.90
2024;DHT22;1016;48.770;9.154;2023-03-04T16:56:04;5.40;99.90
2024;DHT22;1016;48.770;9.154;2023-03-04T16:58:30;5.40;99.90
2024;DHT22;1016;48.770;9.154;2023-03-04T17:00:55;5.60;99.90
2024;DHT22;1016;48.770;9.154;2023-03-04T17:03:21;5.60;99.90
2024;DHT22;1016;48.770;9.154;2023-03-04T17:05:46;5.40;99.90
2024;DHT22;1016;48.770;9.154;2023-03-04T17:08:12;5.40;99.90
2024;DHT22;1016;48.770;9.154;2023-03-04T17:10:38;5.30;99.90
2024;DHT22;1016;48.770;9.154;2023-03-04T17:13:04;5.30;99.90
2024;DHT22;1016;48.770;9.154;2023-03-04T17:15:30;5.40;99.90
2024;DHT22;1016;48.770;9.154;2023-03-04T17:17:55;5.40;99.90
2024;DHT22;1016;48.770;9.154;2023-03-04T17:20:21;5.40;99.90
2024;DHT22;1016;48.770;9.154;2023-03-04T17:22:47;5.60;99.90
2024;DHT22;1016;48.770;9.154;2023-03-04T17:25:14;5.40;99.90
2024;DHT22;1016;48.770;9.154;2023-03-04T17:27:40;5.40;99.90
2024;DHT22;1016;48.770;9.154;2023-03-04T17:30:06;5.40;99.90
2024;DHT22;1016;48.770;9.154;2023-03-04T17:32:32;5.40;99.90
2024;DHT22;1016;48.770;9.154;2023-03-04T17:34:58;5.40;99.90
2024;DHT22;1016;48.770;9.154;2023-03-04T17:37:24;5.40;99.90
2024;DHT22;1016;48.770;9.154;2023-03-04T17:39:50;5.40;99.90
2024;DHT22;1016;48.770;9.154;2023-03-04T17:42:16;5.30;99.90
2024;DHT22;1016;48.770;9.154;2023-03-04T17:44:41;5.40;99.90
2024;DHT22;1016;48.770;9.154;2023-03-04T17:47:08;5.40;99.90
2024;DHT22;1016;48.770;9.154;2023-03-04T17:49:33;5.50;99.90
2024;DHT22;1016;48.770;9.154;2023-03-04T17:52:01;5.40;99.90
2024;DHT22;1016;48.770;9.154;2023-03-04T17:54:26;5.50;99.90
2024;DHT22;1016;48.770;9.154;2023-03-04T17:56:52;5.50;99.90